createdAt,value
2018-06-28T00:00:20.697Z,9.20
2018-06-28T00:02:48.109Z,9.30
2018-06-28T00:05:15.412Z,8.17
2018-06-28T00:07:42.714Z,9.67
2018-06-28T00:10:10.054Z,7.70
2018-06-28T00:12:37.713Z,7.83
2018-06-28T00:15:05.598Z,8.13
2018-06-28T00:17:32.981Z,9.40
2018-06-28T00:20:00.318Z,7.70
2018-06-28T00:22:27.694Z,6.87
2018-06-28T00:24:55.315Z,7.27
2018-06-28T00:27:22.654Z,7.83
2018-06-28T00:29:50.055Z,7.23
2018-06-28T00:32:17.373Z,7.87
2018-06-28T00:34:44.749Z,6.90
2018-06-28T00:37:12.085Z,7.10
2018-06-28T00:39:39.405Z,7.30
2018-06-28T00:42:06.722Z,7.63
2018-06-28T00:44:34.049Z,7.93
2018-06-28T00:47:01.410Z,8.10
2018-06-28T00:49:28.782Z,7.60
2018-06-28T00:51:56.097Z,8.20
2018-06-28T00:54:23.506Z,7.67
2018-06-28T00:56:50.952Z,6.90
2018-06-28T00:59:18.289Z,7.13
2018-06-28T01:01:45.629Z,7.23
2018-06-28T01:04:13.018Z,7.43
2018-06-28T01:06:40.478Z,6.90
2018-06-28T01:09:09.450Z,6.60
2018-06-28T01:11:37.122Z,6.93
2018-06-28T01:14:04.466Z,8.00
2018-06-28T01:16:31.805Z,7.10
2018-06-28T01:18:59.149Z,7.80
2018-06-28T01:21:26.465Z,7.00
2018-06-28T01:23:53.933Z,7.47
2018-06-28T01:26:21.302Z,7.40
2018-06-28T01:28:48.807Z,7.07
2018-06-28T01:31:16.151Z,7.33
2018-06-28T01:33:43.486Z,7.57
2018-06-28T01:36:10.821Z,7.07
2018-06-28T01:38:38.145Z,8.20
2018-06-28T01:41:06.057Z,7.67
2018-06-28T01:43:39.001Z,8.13
2018-06-28T01:46:06.426Z,7.20
2018-06-28T01:48:33.905Z,7.70
2018-06-28T01:51:01.279Z,6.90
2018-06-28T01:53:28.702Z,8.23
2018-06-28T01:55:56.109Z,8.13
2018-06-28T01:58:23.457Z,7.40
2018-06-28T02:00:50.967Z,7.73
2018-06-28T02:03:18.384Z,7.80
2018-06-28T02:05:46.603Z,9.20
2018-06-28T02:08:13.909Z,9.67
2018-06-28T02:10:41.281Z,9.50
2018-06-28T02:13:08.602Z,8.93
2018-06-28T02:15:36.249Z,10.27
2018-06-28T02:18:04.241Z,10.23
2018-06-28T02:20:31.582Z,9.67
2018-06-28T02:22:58.905Z,9.90
2018-06-28T02:25:26.358Z,10.07
2018-06-28T02:27:53.714Z,9.20
2018-06-28T02:30:21.183Z,9.07
2018-06-28T02:32:48.590Z,9.87
2018-06-28T02:35:15.911Z,8.83
2018-06-28T02:37:43.257Z,8.77
2018-06-28T02:40:10.604Z,9.90
2018-06-28T02:42:38.353Z,9.03
2018-06-28T02:45:05.874Z,9.53
2018-06-28T02:47:33.209Z,9.60
2018-06-28T02:50:00.846Z,9.10
2018-06-28T02:52:28.189Z,9.13
2018-06-28T02:54:55.825Z,9.20
2018-06-28T02:57:23.158Z,9.70
2018-06-28T02:59:50.530Z,9.97
2018-06-28T03:02:17.910Z,9.60
2018-06-28T03:04:45.237Z,9.07
2018-06-28T03:07:12.718Z,9.20
2018-06-28T03:09:40.031Z,10.50
2018-06-28T03:12:07.401Z,10.80
2018-06-28T03:14:34.870Z,9.53
2018-06-28T03:17:02.181Z,11.13
2018-06-28T03:19:29.558Z,10.30
2018-06-28T03:21:56.877Z,11.10
2018-06-28T03:24:24.245Z,11.17
2018-06-28T03:26:51.683Z,11.83
2018-06-28T03:29:19.106Z,10.87
2018-06-28T03:31:46.506Z,11.60
2018-06-28T03:34:13.882Z,12.70
2018-06-28T03:36:41.206Z,11.70
2018-06-28T03:39:10.837Z,12.60
2018-06-28T03:41:38.342Z,12.00
2018-06-28T03:44:05.654Z,11.20
2018-06-28T03:46:33.099Z,11.63
2018-06-28T03:49:00.461Z,10.90
2018-06-28T03:51:27.805Z,12.27
2018-06-28T03:53:55.150Z,11.07
2018-06-28T03:56:22.618Z,11.00
2018-06-28T03:58:50.706Z,12.00
2018-06-28T04:01:18.090Z,11.93
2018-06-28T04:03:45.440Z,11.23
2018-06-28T04:06:12.826Z,11.30
2018-06-28T04:08:40.166Z,10.67
2018-06-28T04:11:07.499Z,10.73
2018-06-28T04:13:35.185Z,11.40
2018-06-28T04:16:02.529Z,10.20
2018-06-28T04:18:29.881Z,10.87
2018-06-28T04:20:57.317Z,10.07
2018-06-28T04:23:24.686Z,9.40
2018-06-28T04:25:52.043Z,10.33
2018-06-28T04:28:19.357Z,10.77
2018-06-28T04:30:46.798Z,10.30
2018-06-28T04:33:14.130Z,9.80
2018-06-28T04:35:42.101Z,11.23
2018-06-28T04:38:09.991Z,10.40
2018-06-28T04:40:37.361Z,9.47
2018-06-28T04:43:04.771Z,10.53
2018-06-28T04:45:32.161Z,10.10
2018-06-28T04:48:00.027Z,10.50
2018-06-28T04:50:27.391Z,11.57
2018-06-28T04:52:54.757Z,9.33
2018-06-28T04:55:22.225Z,9.20
2018-06-28T04:57:49.693Z,9.33
2018-06-28T05:00:17.076Z,9.03
2018-06-28T05:02:44.515Z,9.97
2018-06-28T05:05:11.855Z,10.93
2018-06-28T05:07:39.265Z,9.77
2018-06-28T05:10:06.841Z,9.10
2018-06-28T05:12:34.230Z,9.03
2018-06-28T05:15:01.590Z,9.93
2018-06-28T05:17:28.909Z,8.53
2018-06-28T05:19:56.241Z,9.37
2018-06-28T05:22:24.058Z,8.00
2018-06-28T05:24:52.208Z,10.20
2018-06-28T05:27:19.703Z,8.90
2018-06-28T05:29:47.033Z,10.13
2018-06-28T05:32:14.397Z,9.27
2018-06-28T05:34:41.785Z,9.20
2018-06-28T05:37:09.109Z,8.47
2018-06-28T05:39:36.457Z,8.97
2018-06-28T05:42:03.834Z,8.93
2018-06-28T05:44:31.181Z,7.00
2018-06-28T05:46:58.519Z,7.13
2018-06-28T05:49:25.849Z,6.87
2018-06-28T05:51:53.413Z,7.43
2018-06-28T05:54:20.817Z,7.17
2018-06-28T05:56:48.174Z,6.97
2018-06-28T05:59:15.494Z,6.40
2018-06-28T06:01:42.855Z,6.63
2018-06-28T06:04:10.917Z,6.33
2018-06-28T06:06:38.354Z,7.03
2018-06-28T06:09:06.825Z,7.83
2018-06-28T06:11:34.261Z,6.90
2018-06-28T06:14:01.706Z,6.73
2018-06-28T06:16:29.013Z,5.70
2018-06-28T06:18:56.510Z,5.80
2018-06-28T06:21:23.802Z,5.50
2018-06-28T06:23:51.203Z,6.30
2018-06-28T06:26:18.574Z,6.20
2018-06-28T06:28:45.949Z,5.80
2018-06-28T06:31:13.329Z,8.10
2018-06-28T06:33:40.677Z,5.37
2018-06-28T06:36:08.204Z,4.53
2018-06-28T06:38:35.609Z,5.70
2018-06-28T06:41:03.339Z,6.03
2018-06-28T06:43:30.749Z,5.10
2018-06-28T06:45:58.236Z,5.77
2018-06-28T06:48:25.563Z,5.03
2018-06-28T06:50:53.090Z,5.13
2018-06-28T06:53:20.511Z,5.80
2018-06-28T06:55:47.846Z,5.03
2018-06-28T06:58:15.206Z,5.67
2018-06-28T07:00:42.636Z,5.13
2018-06-28T07:03:10.026Z,4.83
2018-06-28T07:05:37.482Z,4.87
2018-06-28T07:08:04.899Z,5.10
2018-06-28T07:10:32.338Z,5.13
2018-06-28T07:13:00.106Z,5.50
2018-06-28T07:15:27.448Z,4.97
2018-06-28T07:17:54.970Z,4.53
2018-06-28T07:20:22.433Z,6.70
2018-06-28T07:22:49.854Z,6.70
2018-06-28T07:25:17.205Z,5.10
2018-06-28T07:27:44.509Z,5.10
2018-06-28T07:30:11.881Z,4.50
2018-06-28T07:32:39.403Z,4.90
2018-06-28T07:35:06.626Z,4.50
2018-06-28T07:37:34.101Z,5.97
2018-06-28T07:40:01.447Z,4.10
2018-06-28T07:42:28.800Z,5.93
2018-06-28T07:44:56.101Z,5.93
2018-06-28T07:47:23.494Z,4.70
2018-06-28T07:49:50.968Z,4.77
2018-06-28T07:52:18.324Z,3.93
2018-06-28T07:54:45.668Z,5.17
2018-06-28T07:57:13.438Z,5.50
2018-06-28T07:59:40.792Z,7.00
2018-06-28T08:02:08.311Z,5.73
2018-06-28T08:04:35.661Z,5.13
2018-06-28T08:07:03.043Z,4.70
2018-06-28T08:09:30.493Z,3.93
2018-06-28T08:12:01.762Z,4.37
2018-06-28T08:14:29.106Z,5.07
2018-06-28T08:16:56.513Z,5.10
2018-06-28T08:19:23.857Z,5.17
2018-06-28T08:21:51.822Z,4.97
2018-06-28T08:24:19.165Z,7.70
2018-06-28T08:26:46.538Z,4.80
2018-06-28T08:29:13.885Z,5.43
2018-06-28T08:31:41.333Z,4.27
2018-06-28T08:34:08.825Z,3.63
2018-06-28T08:36:36.262Z,3.67
2018-06-28T08:39:06.149Z,3.87
2018-06-28T08:41:33.492Z,3.90
2018-06-28T08:44:00.872Z,3.83
2018-06-28T08:46:29.046Z,5.83
2018-06-28T08:48:56.451Z,3.17
2018-06-28T08:51:23.818Z,3.13
2018-06-28T08:53:51.266Z,4.10
2018-06-28T08:56:18.631Z,3.77
2018-06-28T08:58:46.942Z,3.80
2018-06-28T09:01:14.353Z,3.80
2018-06-28T09:03:41.709Z,2.80
2018-06-28T09:06:09.109Z,1.80
2018-06-28T09:08:36.511Z,4.83
2018-06-28T09:11:03.905Z,4.07
2018-06-28T09:13:31.605Z,2.20
2018-06-28T09:15:59.038Z,2.63
2018-06-28T09:18:26.386Z,4.03
2018-06-28T09:20:53.770Z,2.37
2018-06-28T09:23:21.643Z,2.03
2018-06-28T09:25:49.126Z,2.37
2018-06-28T09:28:16.529Z,2.27
2018-06-28T09:30:43.941Z,2.90
2018-06-28T09:33:12.050Z,2.20
2018-06-28T09:35:40.562Z,2.53
2018-06-28T09:38:07.934Z,3.07
2018-06-28T09:40:35.414Z,2.40
2018-06-28T09:43:02.826Z,2.23
2018-06-28T09:45:30.207Z,2.60
2018-06-28T09:47:58.261Z,2.57
2018-06-28T09:50:25.759Z,2.77
2018-06-28T09:52:53.117Z,3.80
2018-06-28T09:55:20.481Z,2.57
2018-06-28T09:57:47.870Z,2.33
2018-06-28T10:00:21.135Z,3.10
2018-06-28T10:02:48.458Z,2.70
2018-06-28T10:05:15.894Z,2.17
2018-06-28T10:07:43.257Z,1.70
2018-06-28T10:10:10.614Z,2.10
2018-06-28T10:12:38.170Z,2.13
2018-06-28T10:15:05.954Z,2.37
2018-06-28T10:17:33.426Z,2.80
2018-06-28T10:20:00.823Z,2.20
2018-06-28T10:22:28.285Z,3.80
2018-06-28T10:24:55.771Z,2.80
2018-06-28T10:27:23.118Z,3.47
2018-06-28T10:29:50.654Z,2.50
2018-06-28T10:32:18.098Z,3.20
2018-06-28T10:34:45.465Z,2.83
2018-06-28T10:37:12.950Z,2.10
2018-06-28T10:39:40.476Z,1.90
2018-06-28T10:42:07.957Z,2.10
2018-06-28T10:44:35.384Z,2.30
2018-06-28T10:47:02.845Z,2.20
2018-06-28T10:49:30.713Z,2.83
2018-06-28T10:52:01.957Z,1.87
2018-06-28T10:54:29.293Z,1.70
2018-06-28T10:56:56.691Z,2.27
2018-06-28T10:59:24.017Z,2.67
2018-06-28T11:01:51.579Z,3.13
2018-06-28T11:04:18.975Z,3.33
2018-06-28T11:06:46.333Z,1.80
2018-06-28T11:09:13.736Z,2.40
2018-06-28T11:11:41.577Z,2.00
2018-06-28T11:14:09.017Z,3.50
2018-06-28T11:16:36.402Z,1.70
2018-06-28T11:19:03.988Z,2.43
2018-06-28T11:21:31.621Z,1.93
2018-06-28T11:23:58.985Z,4.13
2018-06-28T11:26:26.745Z,3.40
2018-06-28T11:28:54.148Z,2.33
2018-06-28T11:31:21.537Z,1.60
2018-06-28T11:33:49.004Z,2.20
2018-06-28T11:36:16.387Z,4.13
2018-06-28T11:38:44.063Z,2.00
2018-06-28T11:41:11.433Z,1.60
2018-06-28T11:43:38.796Z,1.60
2018-06-28T11:46:06.159Z,1.83
2018-06-28T11:48:33.545Z,2.50
2018-06-28T11:51:01.121Z,1.60
2018-06-28T11:53:28.515Z,2.40
2018-06-28T11:55:55.892Z,1.77
2018-06-28T11:58:23.232Z,1.40
2018-06-28T12:00:50.621Z,1.40
2018-06-28T12:03:18.085Z,1.80
2018-06-28T12:05:45.448Z,2.40
2018-06-28T12:08:12.874Z,3.13
2018-06-28T12:10:40.226Z,1.53
2018-06-28T12:13:07.610Z,1.40
2018-06-28T12:15:34.969Z,2.83
2018-06-28T12:18:02.361Z,1.60
2018-06-28T12:20:29.833Z,1.40
2018-06-28T12:22:57.201Z,1.80
2018-06-28T12:25:24.617Z,1.23
2018-06-28T12:27:52.113Z,1.30
2018-06-28T12:30:19.482Z,1.57
2018-06-28T12:32:47.474Z,1.90
2018-06-28T12:35:14.881Z,1.77
2018-06-28T12:37:42.280Z,1.67
2018-06-28T12:40:09.658Z,1.73
2018-06-28T12:42:37.756Z,1.40
2018-06-28T12:45:05.470Z,1.83
2018-06-28T12:47:50.237Z,1.40
2018-06-28T12:50:17.645Z,2.93
2018-06-28T12:52:53.761Z,1.90
2018-06-28T12:55:21.685Z,1.40
2018-06-28T12:57:49.490Z,2.50
2018-06-28T13:00:17.502Z,1.40
2018-06-28T13:02:45.195Z,4.43
2018-06-28T13:05:13.577Z,1.90
2018-06-28T13:07:41.006Z,2.57
2018-06-28T13:10:10.197Z,1.67
2018-06-28T13:12:37.958Z,4.00
2018-06-28T13:15:06.134Z,1.20
2018-06-28T13:17:33.525Z,1.77
2018-06-28T13:20:00.970Z,1.17
2018-06-28T13:22:28.789Z,1.50
2018-06-28T13:24:56.569Z,9.10
2018-06-28T13:27:24.113Z,1.60
2018-06-28T13:29:51.554Z,19.20
2018-06-28T13:32:19.019Z,2.63
2018-06-28T13:34:46.429Z,1.50
2018-06-28T13:37:14.149Z,1.33
2018-06-28T13:39:41.780Z,1.30
2018-06-28T13:42:09.404Z,1.27
2018-06-28T13:44:36.708Z,1.53
2018-06-28T13:47:04.371Z,1.20
2018-06-28T13:49:31.828Z,2.10
2018-06-28T13:51:59.241Z,1.70
2018-06-28T13:54:26.610Z,2.07
2018-06-28T13:56:54.094Z,1.20
2018-06-28T13:59:21.439Z,1.70
2018-06-28T14:01:48.846Z,1.43
2018-06-28T14:04:16.245Z,1.50
2018-06-28T14:06:43.637Z,1.40
2018-06-28T14:09:12.464Z,1.60
2018-06-28T14:11:39.982Z,1.40
2018-06-28T14:14:07.389Z,1.30
2018-06-28T14:16:34.821Z,2.23
2018-06-28T14:19:02.424Z,1.53
2018-06-28T14:21:29.786Z,1.30
2018-06-28T14:23:57.190Z,1.10
2018-06-28T14:26:24.621Z,2.13
2018-06-28T14:28:52.165Z,1.43
2018-06-28T14:31:19.585Z,1.57
2018-06-28T14:33:46.973Z,1.30
2018-06-28T14:36:14.389Z,1.83
2018-06-28T14:38:41.751Z,1.83
2018-06-28T14:41:09.923Z,1.67
2018-06-28T14:43:37.313Z,1.83
2018-06-28T14:46:05.142Z,1.73
2018-06-28T14:48:32.551Z,1.80
2018-06-28T14:50:59.983Z,1.70
2018-06-28T14:53:27.751Z,1.87
2018-06-28T14:55:55.247Z,1.77
2018-06-28T14:58:22.617Z,1.70
2018-06-28T15:00:50.089Z,2.37
2018-06-28T15:03:17.485Z,1.50
2018-06-28T15:05:44.855Z,2.50
2018-06-28T15:08:12.297Z,1.67
2018-06-28T15:10:39.727Z,1.60
2018-06-28T15:13:07.498Z,1.63
2018-06-28T15:15:34.918Z,2.30
2018-06-28T15:18:02.404Z,1.70
2018-06-28T15:20:29.774Z,2.00
2018-06-28T15:22:57.284Z,1.60
2018-06-28T15:25:24.648Z,1.80
2018-06-28T15:27:52.085Z,1.93
2018-06-28T15:30:19.513Z,2.10
2018-06-28T15:32:47.208Z,1.57
2018-06-28T15:35:14.582Z,2.43
2018-06-28T15:37:42.212Z,2.03
2018-06-28T15:40:09.591Z,2.47
2018-06-28T15:42:36.996Z,1.90
2018-06-28T15:45:04.413Z,1.97
2018-06-28T15:47:31.805Z,1.93
2018-06-28T15:49:59.435Z,2.27
2018-06-28T15:52:26.861Z,2.50
2018-06-28T15:54:54.276Z,1.87
2018-06-28T15:57:21.669Z,2.17
2018-06-28T15:59:49.390Z,3.47
2018-06-28T16:02:16.845Z,1.87
2018-06-28T16:04:44.391Z,2.47
2018-06-28T16:07:11.917Z,1.87
2018-06-28T16:09:39.730Z,2.60
2018-06-28T16:12:07.133Z,1.90
2018-06-28T16:14:34.501Z,2.90
2018-06-28T16:17:01.971Z,2.30
2018-06-28T16:19:29.371Z,2.50
2018-06-28T16:21:56.793Z,4.60
2018-06-28T16:24:24.583Z,2.27
2018-06-28T16:26:52.000Z,2.30
2018-06-28T16:29:19.960Z,2.37
2018-06-28T16:31:47.414Z,2.50
2018-06-28T16:34:14.881Z,3.70
2018-06-28T16:36:42.453Z,2.17
2018-06-28T16:39:10.791Z,3.20
2018-06-28T16:41:38.314Z,2.60
2018-06-28T16:44:05.968Z,2.57
2018-06-28T16:46:33.375Z,3.93
2018-06-28T16:49:00.765Z,2.37
2018-06-28T16:51:28.222Z,2.60
2018-06-28T16:53:55.621Z,3.53
2018-06-28T16:56:23.093Z,2.10
2018-06-28T16:58:50.513Z,3.37
2018-06-28T17:01:17.941Z,2.37
2018-06-28T17:03:45.321Z,2.90
2018-06-28T17:06:12.719Z,3.00
2018-06-28T17:08:40.331Z,5.07
2018-06-28T17:11:07.748Z,2.17
2018-06-28T17:13:35.313Z,3.70
2018-06-28T17:16:02.913Z,3.63
2018-06-28T17:18:30.316Z,4.40
2018-06-28T17:20:58.004Z,2.27
2018-06-28T17:23:25.605Z,2.03
2018-06-28T17:25:52.987Z,2.20
2018-06-28T17:28:20.805Z,1.80
2018-06-28T17:30:48.204Z,3.40
2018-06-28T17:33:15.626Z,2.93
2018-06-28T17:35:43.029Z,3.17
2018-06-28T17:38:10.592Z,2.00
2018-06-28T17:40:37.945Z,4.33
2018-06-28T17:43:05.323Z,5.07
2018-06-28T17:45:32.773Z,3.00
2018-06-28T17:48:00.129Z,3.70
2018-06-28T17:50:27.673Z,2.23
2018-06-28T17:52:55.671Z,8.30
2018-06-28T17:55:23.313Z,1.90
2018-06-28T17:57:50.733Z,2.57
2018-06-28T18:00:18.126Z,2.67
2018-06-28T18:02:46.081Z,3.70
2018-06-28T18:05:13.514Z,2.10
2018-06-28T18:07:40.869Z,1.70
2018-06-28T18:10:08.440Z,2.10
2018-06-28T18:12:35.857Z,3.27
2018-06-28T18:15:03.423Z,8.83
2018-06-28T18:17:30.814Z,2.83
2018-06-28T18:19:58.201Z,3.47
2018-06-28T18:22:25.602Z,1.93
2018-06-28T18:24:53.021Z,2.10
2018-06-28T18:27:20.441Z,5.47
2018-06-28T18:29:48.382Z,1.77
2018-06-28T18:32:15.805Z,2.77
2018-06-28T18:34:43.251Z,2.10
2018-06-28T18:37:10.836Z,3.60
2018-06-28T18:39:40.058Z,2.73
2018-06-28T18:42:07.893Z,2.40
2018-06-28T18:44:35.482Z,3.20
2018-06-28T18:47:03.127Z,1.97
2018-06-28T18:49:30.562Z,3.50
2018-06-28T18:51:58.322Z,2.37
2018-06-28T18:54:26.069Z,1.80
2018-06-28T18:56:53.409Z,7.00
2018-06-28T18:59:20.790Z,3.03
2018-06-28T19:01:48.276Z,2.20
2018-06-28T19:04:15.609Z,2.20
2018-06-28T19:06:43.046Z,2.20
2018-06-28T19:09:11.621Z,1.90
2018-06-28T19:11:39.010Z,1.43
2018-06-28T19:14:12.144Z,2.90
2018-06-28T19:16:45.078Z,2.77
2018-06-28T19:19:12.913Z,5.40
2018-06-28T19:21:46.034Z,2.17
2018-06-28T19:24:13.430Z,2.47
2018-06-28T19:26:40.886Z,3.10
2018-06-28T19:29:13.925Z,2.73
2018-06-28T19:31:46.884Z,4.00
2018-06-28T19:34:21.322Z,4.00
2018-06-28T19:36:48.666Z,2.83
2018-06-28T19:39:21.827Z,2.90
2018-06-28T19:41:55.313Z,3.30
2018-06-28T19:44:22.677Z,2.30
2018-06-28T19:46:50.181Z,1.80
2018-06-28T19:49:23.236Z,6.13
2018-06-28T19:51:56.153Z,2.40
2018-06-28T19:54:24.454Z,2.03
2018-06-28T19:56:51.981Z,3.00
2018-06-28T19:59:19.429Z,4.60
2018-06-28T20:01:52.514Z,3.00
2018-06-28T20:04:25.421Z,2.70
2018-06-28T20:06:52.889Z,2.80
2018-06-28T20:09:20.247Z,3.73
2018-06-28T20:11:47.788Z,3.40
2018-06-28T20:14:20.847Z,4.73
2018-06-28T20:16:53.862Z,7.50
2018-06-28T20:19:27.103Z,3.10
2018-06-28T20:21:54.917Z,2.70
2018-06-28T20:24:22.332Z,4.10
2018-06-28T20:26:55.325Z,3.87
2018-06-28T20:29:28.452Z,2.37
2018-06-28T20:32:01.634Z,5.63
2018-06-28T20:34:28.993Z,5.80
2018-06-28T20:36:56.439Z,4.17
2018-06-28T20:39:23.830Z,4.50
2018-06-28T20:41:51.269Z,5.87
2018-06-28T20:44:18.659Z,5.10
2018-06-28T20:46:46.225Z,4.20
2018-06-28T20:49:13.648Z,2.60
2018-06-28T20:51:41.146Z,2.50
2018-06-28T20:54:08.609Z,2.50
2018-06-28T20:56:35.993Z,2.90
2018-06-28T20:59:03.407Z,4.83
2018-06-28T21:01:31.296Z,5.60
2018-06-28T21:03:58.764Z,3.47
2018-06-28T21:06:26.237Z,4.23
2018-06-28T21:08:53.725Z,6.30
2018-06-28T21:11:21.152Z,4.20
2018-06-28T21:13:49.427Z,2.57
2018-06-28T21:16:16.788Z,5.23
2018-06-28T21:18:44.145Z,3.40
2018-06-28T21:21:11.588Z,4.43
2018-06-28T21:23:39.057Z,3.77
2018-06-28T21:26:06.425Z,3.20
2018-06-28T21:28:33.858Z,3.00
2018-06-28T21:31:01.217Z,5.13
2018-06-28T21:33:28.573Z,4.77
2018-06-28T21:35:55.971Z,5.73
2018-06-28T21:38:23.414Z,4.43
2018-06-28T21:40:50.810Z,3.87
2018-06-28T21:43:18.239Z,6.20
2018-06-28T21:45:46.002Z,4.00
2018-06-28T21:48:13.381Z,4.00
2018-06-28T21:50:40.786Z,5.30
2018-06-28T21:53:08.205Z,3.93
2018-06-28T21:55:35.670Z,5.57
2018-06-28T21:58:03.071Z,4.23
2018-06-28T22:00:33.484Z,5.70
2018-06-28T22:03:04.885Z,3.83
2018-06-28T22:05:33.238Z,3.60
2018-06-28T22:08:00.898Z,6.13
2018-06-28T22:10:29.463Z,4.90
2018-06-28T22:12:57.889Z,4.80
2018-06-28T22:15:26.694Z,4.47
2018-06-28T22:17:56.401Z,3.97
2018-06-28T22:20:24.698Z,4.13
2018-06-28T22:22:52.664Z,5.73
2018-06-28T22:25:20.082Z,4.23
2018-06-28T22:27:47.505Z,6.53
2018-06-28T22:30:17.507Z,5.07
2018-06-28T22:32:45.222Z,7.13
2018-06-28T22:35:13.418Z,6.63
2018-06-28T22:37:41.178Z,5.53
2018-06-28T22:40:08.671Z,5.60
2018-06-28T22:42:36.033Z,7.67
2018-06-28T22:45:03.523Z,7.93
2018-06-28T22:47:31.161Z,7.30
2018-06-28T22:49:58.593Z,5.30
2018-06-28T22:52:26.023Z,6.30
2018-06-28T22:54:53.525Z,10.83
2018-06-28T22:57:21.070Z,9.00
2018-06-28T22:59:48.432Z,6.00
2018-06-28T23:02:15.832Z,7.90
2018-06-28T23:04:43.278Z,10.13
2018-06-28T23:07:11.656Z,8.43
2018-06-28T23:09:39.530Z,5.13
2018-06-28T23:12:07.063Z,5.97
2018-06-28T23:14:35.503Z,6.30
2018-06-28T23:17:02.934Z,5.80
2018-06-28T23:19:31.085Z,6.60
2018-06-28T23:21:58.770Z,10.47
2018-06-28T23:24:28.726Z,9.03
2018-06-28T23:26:56.226Z,6.90
2018-06-28T23:29:24.190Z,6.70
2018-06-28T23:31:52.025Z,6.70
2018-06-28T23:34:19.566Z,7.33
2018-06-28T23:36:46.923Z,8.77
2018-06-28T23:39:16.053Z,8.53
2018-06-28T23:41:43.878Z,15.80
2018-06-28T23:44:11.242Z,8.53
2018-06-28T23:46:39.261Z,8.33
2018-06-28T23:49:07.697Z,12.63
2018-06-28T23:51:36.217Z,11.43
2018-06-28T23:54:03.696Z,11.40
2018-06-28T23:56:31.430Z,9.10
2018-06-28T23:59:01.196Z,9.33
